Time;durP1;ratioP1;P1;durP2;ratioP2;P2;SDS_P1;SDS_P2;PMS_P1;PMS_P2;Temp;Humidity;BMP_temperature;BMP_pressure;BME280_temperature;BME280_humidity;BME280_pressure;Samples;Min_cycle;Max_cycle;Signal;HPM_P1;HPM_P2
2022/01/18 00:01:10;;;;;;;3.27;1.67;;;16.60;82.40;;;;;;5072396;28;20161;-23
2022/01/18 00:03:36;;;;;;;4.40;2.00;;;16.60;82.50;;;;;;5054028;28;20173;-22
2022/01/18 00:06:03;;;;;;;3.47;1.57;;;16.60;82.50;;;;;;5055708;28;20205;-24
2022/01/18 00:08:29;;;;;;;3.53;1.83;;;16.60;82.60;;;;;;5073048;28;20179;-21
2022/01/18 00:10:55;;;;;;;3.37;1.80;;;16.50;82.60;;;;;;5054067;28;20173;-23
2022/01/18 00:18:31;;;;;;;2.37;1.60;;;16.50;83.30;;;;;;5071650;28;20432;-23
2022/01/18 00:23:35;;;;;;;3.13;1.70;;;16.50;82.70;;;;;;5072907;28;20179;-26
2022/01/18 00:26:02;;;;;;;2.47;1.40;;;16.50;82.80;;;;;;5054484;28;20207;-23
2022/01/18 00:28:29;;;;;;;2.27;1.33;;;16.50;82.80;;;;;;5072449;28;20174;-25
2022/01/18 00:31:35;;;;;;;2.33;1.33;;;16.50;82.80;;;;;;5072301;28;20165;-21
2022/01/18 00:38:57;;;;;;;2.70;1.60;;;16.50;82.80;;;;;;5071340;28;20384;-24
2022/01/18 00:41:25;;;;;;;3.73;1.60;;;16.50;82.80;;;;;;5053620;28;20203;-22
2022/01/18 00:43:52;;;;;;;3.63;1.87;;;16.50;82.70;;;;;;5072066;28;20176;-22
2022/01/18 00:46:18;;;;;;;2.60;1.60;;;16.50;82.60;;;;;;5071826;28;20220;-23
2022/01/18 00:48:43;;;;;;;3.97;2.00;;;16.50;83.20;;;;;;5056099;28;20167;-22
2022/01/18 00:51:13;;;;;;;2.50;1.50;;;16.50;82.60;;;;;;5054899;28;20169;-23
2022/01/18 00:53:42;;;;;;;2.33;1.50;;;16.50;82.60;;;;;;5055378;28;20578;-23
2022/01/18 00:58:41;;;;;;;1.93;1.40;;;16.50;82.50;;;;;;5071172;28;20590;-22
2022/01/18 01:01:08;;;;;;;3.70;1.47;;;16.50;82.50;;;;;;5054339;28;20179;-24
2022/01/18 01:03:35;;;;;;;2.43;1.40;;;16.50;82.80;;;;;;5054324;28;20172;-21
2022/01/18 01:06:02;;;;;;;4.10;1.60;;;16.50;82.60;;;;;;5072159;28;20200;-23
2022/01/18 01:08:28;;;;;;;2.73;1.40;;;16.50;82.60;;;;;;5073480;28;20167;-26
2022/01/18 01:10:54;;;;;;;2.37;1.37;;;16.50;82.60;;;;;;5071627;28;20166;-22
2022/01/18 01:13:20;;;;;;;2.70;1.60;;;16.50;82.60;;;;;;5055513;28;20180;-23
2022/01/18 01:18:32;;;;;;;3.20;1.70;;;16.50;82.60;;;;;;5072326;28;20211;-23
2022/01/18 01:34:42;;;;;;;2.43;1.50;;;16.50;82.40;;;;;;5071961;28;20546;-26
2022/01/18 01:45:19;;;;;;;3.30;1.60;;;16.50;82.50;;;;;;5072523;28;20203;-23
2022/01/18 01:47:50;;;;;;;2.97;1.60;;;16.50;82.50;;;;;;5057921;28;20604;-24
2022/01/18 01:50:19;;;;;;;2.90;1.47;;;16.50;82.50;;;;;;5057403;28;20460;-23
2022/01/18 01:52:45;;;;;;;2.80;1.37;;;16.40;82.40;;;;;;5058619;28;20173;-23
2022/01/18 01:55:13;;;;;;;2.27;1.40;;;16.40;82.40;;;;;;5057386;28;20194;-24
2022/01/18 01:57:38;;;;;;;2.33;1.40;;;16.50;82.60;;;;;;5075984;28;20163;-23
2022/01/18 02:00:07;;;;;;;2.60;1.47;;;16.50;82.50;;;;;;5074610;28;20563;-25
2022/01/18 02:02:33;;;;;;;2.80;1.47;;;16.50;82.70;;;;;;5053726;28;20173;-25
2022/01/18 02:04:59;;;;;;;2.80;1.47;;;16.50;82.80;;;;;;5070927;28;20196;-23
2022/01/18 02:07:24;;;;;;;2.03;1.50;;;16.40;82.60;;;;;;5072292;28;20179;-21
2022/01/18 02:09:50;;;;;;;2.37;1.30;;;16.50;82.70;;;;;;5054471;28;20312;-22
2022/01/18 02:12:19;;;;;;;2.83;1.50;;;16.40;82.70;;;;;;5055467;28;20171;-25
2022/01/18 02:14:51;;;;;;;3.97;1.60;;;16.40;83.30;;;;;;5074494;28;20208;-22
2022/01/18 02:22:52;;;;;;;2.37;1.40;;;16.40;82.80;;;;;;5032268;28;20181;-22
2022/01/18 02:25:18;;;;;;;2.47;1.37;;;16.40;82.80;;;;;;5073833;28;20232;-23
2022/01/18 02:27:44;;;;;;;2.47;1.50;;;16.40;82.80;;;;;;5054996;28;20172;-23
2022/01/18 02:30:11;;;;;;;2.53;1.30;;;16.40;82.70;;;;;;5056338;28;20511;-23
2022/01/18 02:32:36;;;;;;;2.37;1.40;;;16.40;82.80;;;;;;5073954;28;20202;-25
2022/01/18 02:35:03;;;;;;;2.90;1.30;;;16.40;82.80;;;;;;5073728;28;20528;-25
2022/01/18 02:37:29;;;;;;;3.10;1.73;;;16.40;82.70;;;;;;5057051;28;20409;-23
2022/01/18 02:39:54;;;;;;;2.13;1.30;;;16.40;82.80;;;;;;5073439;28;20541;-25
2022/01/18 02:42:26;;;;;;;2.13;1.40;;;16.40;82.70;;;;;;5074638;28;20582;-23
2022/01/18 02:44:52;;;;;;;2.23;1.43;;;16.40;82.70;;;;;;5054540;28;20181;-23
2022/01/18 02:47:22;;;;;;;1.57;1.30;;;16.40;82.80;;;;;;5073542;28;20210;-25
2022/01/18 02:49:49;;;;;;;2.63;1.37;;;16.40;82.70;;;;;;5055017;28;20172;-23
2022/01/18 02:52:17;;;;;;;2.90;1.40;;;16.40;82.80;;;;;;5053337;28;20283;-24
2022/01/18 02:54:43;;;;;;;2.67;1.30;;;16.30;82.80;;;;;;5073092;28;20168;-23
2022/01/18 02:57:15;;;;;;;2.07;1.20;;;16.30;82.80;;;;;;5056559;28;20178;-24
2022/01/18 03:00:05;;;;;;;2.43;1.50;;;16.30;82.70;;;;;;5072679;28;20364;-24
2022/01/18 03:05:18;;;;;;;1.53;1.10;;;16.30;82.70;;;;;;5074262;28;20199;-25
2022/01/18 03:07:44;;;;;;;1.90;1.17;;;16.30;82.80;;;;;;5074866;28;20168;-22
2022/01/18 03:10:12;;;;;;;2.87;1.30;;;16.40;82.80;;;;;;5056652;28;20169;-26
2022/01/18 03:12:38;;;;;;;2.07;1.30;;;16.30;82.80;;;;;;5054459;28;20457;-24
2022/01/18 03:15:05;;;;;;;1.53;1.10;;;16.30;82.70;;;;;;5073010;28;20438;-22
2022/01/18 03:17:31;;;;;;;1.60;1.20;;;16.30;82.70;;;;;;5072095;28;20268;-23
2022/01/18 03:19:58;;;;;;;2.37;1.37;;;16.30;82.70;;;;;;5056810;28;20201;-23
2022/01/18 03:22:25;;;;;;;2.03;1.03;;;16.30;82.80;;;;;;5074573;28;20524;-25
2022/01/18 03:30:06;;;;;;;1.77;1.30;;;16.30;83.40;;;;;;5074268;28;20281;-24
2022/01/18 03:32:33;;;;;;;2.03;1.37;;;16.30;82.80;;;;;;5055811;28;21095;-24
2022/01/18 03:34:58;;;;;;;1.20;0.90;;;16.30;82.90;;;;;;5072788;28;20172;-24
2022/01/18 03:37:24;;;;;;;2.00;1.20;;;16.30;83.00;;;;;;5073973;28;20176;-22
2022/01/18 03:39:50;;;;;;;2.33;1.30;;;16.30;83.70;;;;;;5072604;28;20180;-23
2022/01/18 03:45:02;;;;;;;1.87;1.20;;;16.20;83.30;;;;;;5073262;28;20226;-23
2022/01/18 03:47:29;;;;;;;2.17;1.30;;;16.20;83.50;;;;;;5073228;28;20175;-22
2022/01/18 03:49:55;;;;;;;1.70;1.17;;;16.20;83.60;;;;;;5055414;28;20180;-24
2022/01/18 03:52:20;;;;;;;2.30;1.30;;;16.10;83.70;;;;;;5072935;28;20177;-23
2022/01/18 03:54:47;;;;;;;1.70;1.37;;;16.10;83.80;;;;;;5057121;28;20171;-23
2022/01/18 03:57:14;;;;;;;2.20;1.23;;;16.10;83.90;;;;;;5053877;28;20174;-23
2022/01/18 03:59:41;;;;;;;1.77;1.30;;;16.10;84.00;;;;;;5072614;28;20172;-24
2022/01/18 04:02:07;;;;;;;1.93;1.20;;;16.10;84.00;;;;;;5070100;28;20210;-22
2022/01/18 04:04:36;;;;;;;1.63;1.10;;;16.10;84.10;;;;;;5073126;28;20168;-24
2022/01/18 04:07:02;;;;;;;1.87;1.30;;;16.20;83.80;;;;;;5055853;28;20622;-23
2022/01/18 04:09:28;;;;;;;1.87;1.30;;;17.70;73.20;;;;;;5072626;28;20173;-22
2022/01/18 04:11:54;;;;;;;2.47;1.20;;;19.00;63.00;;;;;;5074152;28;20173;-25
2022/01/18 04:14:19;;;;;;;1.90;1.20;;;20.10;57.50;;;;;;5071514;28;20182;-24
2022/01/18 04:17:15;;;;;;;1.87;1.20;;;20.70;55.10;;;;;;5073428;28;20205;-24
2022/01/18 04:27:54;;;;;;;1.83;1.20;;;21.30;52.30;;;;;;5072443;28;20178;-23
2022/01/18 04:30:21;;;;;;;2.53;1.30;;;21.20;52.60;;;;;;5072847;28;20163;-23
2022/01/18 04:32:47;;;;;;;1.97;1.30;;;21.00;52.80;;;;;;5071967;28;20306;-25
2022/01/18 04:35:13;;;;;;;1.93;1.43;;;20.70;53.30;;;;;;5071755;28;20331;-27
2022/01/18 04:37:39;;;;;;;1.33;1.00;;;20.50;53.80;;;;;;5056223;28;20181;-27
2022/01/18 04:40:12;;;;;;;1.70;1.10;;;20.30;54.40;;;;;;5072528;28;20636;-21
2022/01/18 04:42:59;;;;;;;1.27;0.90;;;19.90;55.20;;;;;;5070413;28;20342;-22
2022/01/18 04:50:52;;;;;;;1.53;1.20;;;19.30;57.70;;;;;;5072320;28;20168;-23
2022/01/18 04:53:18;;;;;;;1.83;1.10;;;19.00;58.70;;;;;;5073135;28;20168;-23
2022/01/18 04:55:44;;;;;;;1.40;1.30;;;18.90;59.40;;;;;;5071202;28;20449;-23
2022/01/18 04:58:10;;;;;;;1.60;1.10;;;18.70;60.50;;;;;;5073325;28;20177;-24
2022/01/18 05:00:35;;;;;;;1.57;1.20;;;18.50;62.00;;;;;;5070491;28;20179;-23
2022/01/18 05:03:01;;;;;;;1.70;1.10;;;18.40;63.40;;;;;;5056038;28;20210;-23
2022/01/18 05:05:30;;;;;;;4.20;1.30;;;18.30;64.40;;;;;;5069638;28;20200;-23
2022/01/18 05:08:04;;;;;;;1.67;1.37;;;18.20;65.50;;;;;;5069635;28;20335;-23
2022/01/18 05:10:30;;;;;;;1.77;1.27;;;18.10;66.60;;;;;;5052253;28;20482;-24
2022/01/18 05:12:59;;;;;;;1.77;1.20;;;17.90;67.60;;;;;;5070150;28;20210;-25
2022/01/18 05:23:19;;;;;;;1.87;1.20;;;17.50;72.00;;;;;;5074475;28;20529;-22
2022/01/18 05:25:46;;;;;;;1.77;1.20;;;17.40;72.90;;;;;;5056806;28;20612;-22
2022/01/18 05:28:13;;;;;;;1.60;1.10;;;17.30;73.60;;;;;;5075696;28;20182;-25
2022/01/18 05:30:40;;;;;;;1.47;1.17;;;17.20;74.10;;;;;;5073150;28;20271;-25
2022/01/18 05:33:06;;;;;;;2.50;1.40;;;17.20;74.80;;;;;;5056895;28;20555;-23
2022/01/18 05:35:33;;;;;;;2.53;1.27;;;17.10;75.20;;;;;;5073951;28;20610;-26
2022/01/18 05:37:59;;;;;;;1.70;1.13;;;17.00;75.60;;;;;;5074900;28;20176;-25
2022/01/18 05:40:26;;;;;;;3.03;1.40;;;17.00;76.20;;;;;;5056623;28;20178;-24
2022/01/18 05:42:51;;;;;;;2.73;1.17;;;16.90;76.50;;;;;;5073963;28;20215;-22
2022/01/18 05:45:18;;;;;;;1.97;1.10;;;16.90;76.90;;;;;;5056971;28;20420;-24
2022/01/18 05:47:44;;;;;;;1.20;1.00;;;16.80;77.30;;;;;;5055921;28;20176;-22
2022/01/18 05:50:12;;;;;;;3.00;1.30;;;16.80;77.70;;;;;;5072361;28;20175;-22
2022/01/18 05:52:38;;;;;;;1.73;1.07;;;16.80;78.10;;;;;;5067964;28;20322;-23
2022/01/18 05:55:05;;;;;;;2.67;1.10;;;16.70;78.20;;;;;;5081060;28;20176;-24
2022/01/18 05:57:32;;;;;;;2.63;1.40;;;16.70;78.60;;;;;;5081320;28;20467;-23
2022/01/18 06:00:05;;;;;;;1.47;1.17;;;16.70;78.90;;;;;;5098756;28;20172;-23
2022/01/18 06:02:42;;;;;;;1.97;1.00;;;16.70;79.00;;;;;;5098726;28;20597;-22
2022/01/18 06:07:55;;;;;;;4.83;1.03;;;16.90;77.50;;;;;;5098460;28;20278;-22
2022/01/18 06:10:20;;;;;;;2.77;1.30;;;17.20;75.00;;;;;;5098094;28;20169;-21
2022/01/18 06:12:46;;;;;;;1.93;1.37;;;17.50;72.50;;;;;;5098153;28;20179;-23
2022/01/18 06:15:12;;;;;;;3.00;1.40;;;17.90;70.10;;;;;;5099209;28;20178;-23
2022/01/18 06:17:38;;;;;;;1.87;1.23;;;18.20;67.20;;;;;;5076845;28;20210;-23
2022/01/18 06:20:08;;;;;;;2.33;1.23;;;18.40;64.90;;;;;;5060942;28;20625;-23
2022/01/18 06:22:34;;;;;;;1.83;1.10;;;18.60;63.30;;;;;;5060021;28;20181;-24
2022/01/18 06:25:00;;;;;;;2.13;1.10;;;18.70;62.30;;;;;;5076893;28;20207;-23
2022/01/18 06:27:26;;;;;;;2.27;1.20;;;18.60;62.80;;;;;;5060610;28;20549;-24
2022/01/18 06:29:52;;;;;;;1.57;1.30;;;18.50;63.70;;;;;;5060321;28;20170;-22
2022/01/18 06:32:18;;;;;;;2.33;1.30;;;18.40;64.80;;;;;;5076956;28;20190;-23
2022/01/18 06:34:44;;;;;;;3.13;1.40;;;18.20;66.20;;;;;;5076293;28;20174;-26
2022/01/18 06:37:10;;;;;;;2.20;1.40;;;18.10;68.30;;;;;;5075922;28;20203;-26
2022/01/18 06:39:37;;;;;;;3.17;1.40;;;17.90;69.30;;;;;;5058847;28;20176;-25
2022/01/18 06:42:04;;;;;;;3.13;1.60;;;17.70;71.00;;;;;;5076648;28;20325;-23
2022/01/18 06:44:30;;;;;;;3.50;1.30;;;17.60;72.40;;;;;;5058393;28;20499;-25
2022/01/18 06:46:56;;;;;;;3.93;1.80;;;17.40;73.30;;;;;;5058408;28;20205;-24
2022/01/18 06:49:22;;;;;;;2.97;1.67;;;17.40;74.20;;;;;;5076277;28;20168;-25
2022/01/18 06:51:47;;;;;;;2.20;1.30;;;17.30;75.00;;;;;;5058144;28;20178;-21
2022/01/18 06:54:16;;;;;;;3.70;1.97;;;17.20;75.70;;;;;;5058319;28;20175;-22
2022/01/18 06:56:46;;;;;;;3.10;1.57;;;17.10;76.30;;;;;;5075468;28;20161;-24
2022/01/18 06:59:13;;;;;;;3.73;1.90;;;17.00;76.70;;;;;;5058779;28;20174;-24
2022/01/18 07:01:39;;;;;;;4.73;2.10;;;17.00;77.30;;;;;;5075534;28;20172;-23
2022/01/18 07:04:05;;;;;;;3.90;1.63;;;16.90;77.70;;;;;;5075967;28;20172;-26
2022/01/18 07:06:32;;;;;;;4.70;1.80;;;16.90;78.20;;;;;;5058564;28;20204;-22
2022/01/18 07:08:58;;;;;;;3.17;1.50;;;16.80;78.40;;;;;;5058733;28;20246;-21
2022/01/18 07:11:24;;;;;;;6.37;1.87;;;16.70;78.90;;;;;;5076513;28;20168;-23
2022/01/18 07:13:50;;;;;;;4.27;1.60;;;16.70;79.20;;;;;;5059169;28;20241;-24
2022/01/18 07:16:15;;;;;;;3.13;1.90;;;16.60;79.50;;;;;;5075848;28;20279;-25
2022/01/18 07:18:41;;;;;;;2.80;1.70;;;16.60;79.70;;;;;;5076149;28;20266;-23
2022/01/18 07:21:09;;;;;;;3.67;1.80;;;16.60;80.00;;;;;;5076448;28;20207;-23
2022/01/18 07:23:35;;;;;;;3.57;1.70;;;16.60;80.30;;;;;;5058891;28;20267;-26
2022/01/18 07:26:01;;;;;;;3.97;1.97;;;16.60;80.50;;;;;;5057819;28;20216;-24
2022/01/18 07:28:27;;;;;;;6.60;2.00;;;16.50;80.60;;;;;;5058378;28;20187;-24
2022/01/18 07:30:53;;;;;;;2.63;1.80;;;16.50;80.80;;;;;;5058267;28;20168;-24
2022/01/18 07:33:19;;;;;;;4.87;1.60;;;16.50;81.00;;;;;;5057932;28;20509;-25
2022/01/18 07:35:46;;;;;;;4.60;1.80;;;16.50;81.10;;;;;;5058440;28;20278;-23
2022/01/18 07:38:16;;;;;;;4.47;2.00;;;16.50;81.00;;;;;;5075588;28;20172;-25
2022/01/18 07:40:43;;;;;;;4.27;1.80;;;16.60;80.60;;;;;;5057985;28;20191;-24
2022/01/18 07:43:10;;;;;;;6.33;1.90;;;16.80;79.70;;;;;;5074433;28;20175;-23
2022/01/18 07:45:36;;;;;;;3.37;1.80;;;17.20;76.70;;;;;;5057745;28;20217;-25
2022/01/18 07:48:02;;;;;;;4.70;1.83;;;17.60;73.30;;;;;;5057385;28;20178;-22
2022/01/18 07:50:28;;;;;;;3.57;1.93;;;18.10;68.90;;;;;;5057462;28;20743;-22
2022/01/18 07:52:55;;;;;;;4.23;1.70;;;18.40;65.30;;;;;;5075784;28;20175;-26
2022/01/18 07:55:22;;;;;;;3.23;1.70;;;18.60;63.50;;;;;;5075736;28;20172;-23
2022/01/18 07:57:48;;;;;;;3.80;1.97;;;18.80;62.10;;;;;;5058118;28;20181;-24
2022/01/18 08:00:16;;;;;;;5.50;2.00;;;18.90;60.90;;;;;;5057793;28;20187;-24
2022/01/18 08:02:42;;;;;;;4.60;2.00;;;18.90;60.60;;;;;;5075385;28;20174;-23
2022/01/18 08:05:10;;;;;;;2.97;1.87;;;18.70;60.90;;;;;;5075281;28;20263;-21
2022/01/18 08:07:36;;;;;;;4.33;1.90;;;18.50;62.20;;;;;;5075430;28;20167;-23
2022/01/18 08:10:05;;;;;;;4.00;2.13;;;18.30;64.10;;;;;;5057718;28;20184;-25
2022/01/18 08:12:31;;;;;;;4.57;2.10;;;18.10;66.20;;;;;;5057831;28;20184;-23
2022/01/18 08:15:02;;;;;;;3.60;1.90;;;17.80;68.10;;;;;;5057385;28;20244;-24
2022/01/18 08:17:28;;;;;;;5.90;2.20;;;17.60;70.10;;;;;;5074796;28;20188;-24
2022/01/18 08:19:54;;;;;;;3.97;2.00;;;17.40;72.00;;;;;;5074514;28;20243;-25
2022/01/18 08:22:20;;;;;;;3.93;2.00;;;17.30;73.30;;;;;;5057232;28;20183;-22
2022/01/18 08:24:46;;;;;;;4.37;1.90;;;17.20;74.70;;;;;;5057060;28;20505;-25
2022/01/18 08:27:12;;;;;;;3.57;1.90;;;17.10;75.50;;;;;;5056721;28;20216;-26
2022/01/18 08:29:38;;;;;;;3.03;2.00;;;17.00;76.20;;;;;;5074907;28;20157;-23
2022/01/18 08:32:06;;;;;;;3.53;1.90;;;16.90;76.90;;;;;;5056588;28;20178;-22
2022/01/18 08:34:32;;;;;;;3.93;1.90;;;16.90;77.50;;;;;;5056829;28;20171;-25
2022/01/18 08:36:59;;;;;;;4.80;1.80;;;16.80;77.90;;;;;;5075114;28;20179;-25
2022/01/18 08:39:25;;;;;;;3.87;2.07;;;16.70;78.30;;;;;;5057000;28;20172;-26
2022/01/18 08:41:50;;;;;;;2.87;1.87;;;16.70;78.70;;;;;;5074550;28;20254;-25
2022/01/18 08:44:16;;;;;;;3.10;1.80;;;16.70;79.20;;;;;;5056691;28;20181;-24
2022/01/18 08:46:42;;;;;;;3.03;1.97;;;16.60;79.60;;;;;;5074252;28;20270;-27
2022/01/18 08:49:08;;;;;;;2.97;2.03;;;16.60;79.70;;;;;;5057287;28;20164;-22
2022/01/18 08:51:34;;;;;;;3.80;2.07;;;16.60;80.20;;;;;;5074436;28;20184;-24
2022/01/18 08:54:01;;;;;;;4.37;1.80;;;16.60;80.40;;;;;;5069258;28;20562;-24
2022/01/18 08:56:29;;;;;;;3.47;2.00;;;16.50;80.60;;;;;;5098620;28;20169;-24
2022/01/18 08:58:56;;;;;;;3.73;2.00;;;16.50;80.90;;;;;;5098473;28;20168;-23
2022/01/18 09:01:21;;;;;;;3.53;2.00;;;16.50;81.20;;;;;;5080354;28;20216;-23
2022/01/18 09:03:48;;;;;;;2.37;1.80;;;16.40;81.40;;;;;;5080895;28;20221;-22
2022/01/18 09:06:16;;;;;;;3.87;1.90;;;16.40;81.50;;;;;;5098980;28;20195;-22
2022/01/18 09:08:42;;;;;;;2.40;1.77;;;16.40;81.70;;;;;;5081061;28;20552;-24
2022/01/18 09:11:11;;;;;;;3.60;1.93;;;16.40;81.80;;;;;;5081084;28;20166;-23
2022/01/18 09:13:39;;;;;;;3.63;2.33;;;16.40;81.80;;;;;;5080726;28;20475;-23
2022/01/18 09:16:09;;;;;;;2.87;2.10;;;16.50;81.60;;;;;;5080404;28;20196;-22
2022/01/18 09:18:35;;;;;;;3.67;2.03;;;16.60;81.10;;;;;;5080600;28;20186;-23
2022/01/18 09:21:01;;;;;;;4.57;2.00;;;16.80;79.90;;;;;;5081080;28;20171;-25
2022/01/18 09:23:27;;;;;;;4.17;2.10;;;17.20;77.00;;;;;;5080598;28;20250;-23
2022/01/18 09:25:53;;;;;;;5.83;2.30;;;17.70;72.00;;;;;;5098380;28;20195;-22
2022/01/18 09:28:18;;;;;;;5.27;2.33;;;18.40;66.70;;;;;;5098028;28;20169;-23
2022/01/18 09:30:44;;;;;;;3.60;2.20;;;18.80;63.00;;;;;;5079702;28;20168;-22
2022/01/18 09:33:11;;;;;;;3.53;2.17;;;18.90;61.40;;;;;;5097188;28;20159;-23
2022/01/18 09:35:39;;;;;;;5.90;2.20;;;18.90;61.00;;;;;;5097987;28;20173;-25
2022/01/18 09:38:06;;;;;;;4.27;2.30;;;18.80;61.00;;;;;;5080413;28;20286;-22
2022/01/18 09:40:37;;;;;;;3.50;2.53;;;18.70;61.50;;;;;;5098430;28;20452;-23
2022/01/18 09:43:09;;;;;;;3.90;2.33;;;18.60;62.50;;;;;;5079839;28;20171;-25
2022/01/18 09:45:35;;;;;;;3.50;2.37;;;18.40;64.10;;;;;;5080298;28;20211;-23
2022/01/18 09:48:03;;;;;;;3.20;2.23;;;18.20;65.60;;;;;;5084963;28;20169;-22
2022/01/18 09:50:33;;;;;;;3.40;2.40;;;18.00;67.10;;;;;;5076813;28;20535;-25
2022/01/18 09:53:00;;;;;;;5.23;2.50;;;17.90;68.50;;;;;;5077755;28;20310;-25
2022/01/18 09:55:29;;;;;;;5.27;2.80;;;17.70;70.10;;;;;;5059688;28;20171;-22
2022/01/18 09:57:56;;;;;;;4.50;2.50;;;17.60;71.50;;;;;;5059480;28;20178;-23
2022/01/18 10:00:23;;;;;;;3.10;2.13;;;17.50;73.00;;;;;;5059704;28;20185;-21
2022/01/18 10:02:49;;;;;;;4.67;2.70;;;17.40;74.00;;;;;;5076715;28;20177;-25
2022/01/18 10:05:24;;;;;;;5.53;2.60;;;17.30;75.00;;;;;;5076638;28;20188;-23
2022/01/18 10:08:11;;;;;;;3.87;2.53;;;17.20;75.70;;;;;;5076109;28;20196;-24
2022/01/18 10:10:45;;;;;;;5.63;3.00;;;17.10;76.50;;;;;;5078927;28;20165;-24
2022/01/18 10:13:25;;;;;;;5.47;2.60;;;17.10;77.10;;;;;;5079426;28;20176;-26
2022/01/18 10:16:07;;;;;;;5.23;2.93;;;17.00;78.30;;;;;;5080164;28;20184;-23
2022/01/18 10:18:38;;;;;;;4.63;2.77;;;17.00;78.30;;;;;;5079423;28;20171;-24
2022/01/18 10:21:07;;;;;;;5.27;2.90;;;17.00;78.90;;;;;;5096661;28;20168;-22
2022/01/18 10:23:34;;;;;;;6.00;3.13;;;16.90;79.20;;;;;;5096574;28;20163;-23
2022/01/18 10:26:18;;;;;;;4.53;3.10;;;16.90;79.50;;;;;;5096079;28;20279;-25
2022/01/18 10:28:44;;;;;;;6.23;3.17;;;16.90;79.90;;;;;;5096403;28;20177;-23
2022/01/18 10:31:28;;;;;;;5.07;3.03;;;16.90;80.10;;;;;;5096816;28;20255;-23
2022/01/18 10:34:23;;;;;;;5.67;3.10;;;16.80;80.30;;;;;;5096375;28;20266;-24
2022/01/18 10:36:58;;;;;;;5.93;3.27;;;16.80;80.50;;;;;;5096381;28;20153;-21
2022/01/18 10:39:27;;;;;;;6.17;3.27;;;16.80;80.80;;;;;;5096585;28;20214;-25
2022/01/18 10:41:53;;;;;;;5.00;3.00;;;16.80;81.10;;;;;;5078264;28;20327;-22
2022/01/18 10:44:19;;;;;;;5.37;3.00;;;16.80;81.60;;;;;;5096465;28;20266;-23
2022/01/18 10:46:57;;;;;;;4.87;3.07;;;16.80;81.70;;;;;;5096143;28;20229;-22
2022/01/18 10:49:29;;;;;;;6.53;3.70;;;16.80;82.40;;;;;;5078797;28;20174;-23
2022/01/18 10:52:12;;;;;;;5.30;3.40;;;16.80;82.20;;;;;;5096641;28;20274;-24
2022/01/18 10:54:52;;;;;;;7.63;3.60;;;16.70;82.50;;;;;;5096104;28;20224;-22
2022/01/18 10:57:25;;;;;;;6.27;3.47;;;16.70;83.00;;;;;;5077986;28;20348;-24
2022/01/18 11:00:20;;;;;;;8.03;3.93;;;16.70;82.60;;;;;;5078779;28;20182;-24
2022/01/18 11:02:51;;;;;;;6.67;3.80;;;16.70;82.70;;;;;;5096019;28;20652;-23
2022/01/18 11:05:37;;;;;;;6.40;3.50;;;16.80;82.60;;;;;;5095543;28;20269;-21
2022/01/18 11:08:04;;;;;;;4.40;3.27;;;17.10;80.50;;;;;;5078214;28;20170;-24
2022/01/18 11:10:34;;;;;;;4.20;3.43;;;17.80;75.50;;;;;;5077353;28;20197;-23
2022/01/18 11:13:07;;;;;;;6.40;3.90;;;18.50;69.20;;;;;;5078254;28;20173;-22
2022/01/18 11:15:36;;;;;;;7.17;3.70;;;19.10;63.30;;;;;;5077902;28;20185;-25
2022/01/18 11:18:07;;;;;;;6.73;3.67;;;19.50;60.20;;;;;;5094254;28;20498;-23
2022/01/18 11:20:39;;;;;;;8.87;3.77;;;19.70;59.20;;;;;;5077458;28;20641;-24
2022/01/18 11:23:06;;;;;;;5.27;3.27;;;19.70;58.60;;;;;;5095165;28;20159;-24
2022/01/18 11:25:33;;;;;;;6.80;3.80;;;19.70;58.60;;;;;;5076755;28;20201;-25
2022/01/18 11:28:01;;;;;;;6.43;3.50;;;19.60;59.00;;;;;;5078828;28;20175;-25
2022/01/18 11:30:31;;;;;;;6.03;3.70;;;19.40;59.60;;;;;;5095522;28;20454;-24
2022/01/18 11:33:02;;;;;;;6.90;3.93;;;19.20;60.40;;;;;;5095366;28;20184;-25
2022/01/18 11:35:38;;;;;;;6.27;3.90;;;19.00;61.90;;;;;;5095571;28;20269;-23
2022/01/18 11:38:09;;;;;;;6.70;3.60;;;18.80;63.70;;;;;;5095532;28;20169;-24
2022/01/18 11:40:46;;;;;;;8.40;3.80;;;18.50;65.70;;;;;;5077977;28;20178;-23
2022/01/18 11:43:12;;;;;;;6.47;3.50;;;18.30;67.50;;;;;;5094641;28;20194;-21
2022/01/18 11:45:41;;;;;;;6.10;3.60;;;18.20;69.30;;;;;;5095724;28;20191;-22
2022/01/18 11:48:17;;;;;;;5.93;3.83;;;18.00;70.50;;;;;;5076986;28;20175;-25
2022/01/18 11:50:50;;;;;;;6.90;4.13;;;17.90;71.90;;;;;;5095452;28;20173;-22
2022/01/18 11:53:40;;;;;;;6.80;3.87;;;17.80;73.10;;;;;;5094447;28;20164;-23
2022/01/18 11:56:11;;;;;;;7.77;3.77;;;17.70;74.10;;;;;;5076534;28;20216;-22
2022/01/18 11:58:39;;;;;;;9.13;4.10;;;17.60;75.00;;;;;;5095204;28;20159;-22
2022/01/18 12:01:06;;;;;;;7.40;4.00;;;17.60;75.60;;;;;;5094785;28;20206;-25
2022/01/18 12:03:43;;;;;;;7.77;4.00;;;17.50;75.90;;;;;;5095227;28;20179;-25
2022/01/18 12:06:10;;;;;;;5.27;3.77;;;17.50;76.40;;;;;;5077629;28;20222;-23
2022/01/18 12:08:42;;;;;;;6.67;4.23;;;17.50;76.80;;;;;;5077748;28;20174;-22
2022/01/18 12:11:18;;;;;;;6.70;3.93;;;17.50;77.00;;;;;;5094516;28;20262;-24
2022/01/18 12:13:45;;;;;;;8.80;4.30;;;17.40;77.10;;;;;;5094266;28;20180;-25
2022/01/18 12:16:20;;;;;;;6.87;3.63;;;17.40;77.40;;;;;;5076510;28;20189;-24
2022/01/18 12:18:55;;;;;;;11.03;3.73;;;17.40;77.70;;;;;;5076372;28;20176;-22
2022/01/18 12:21:26;;;;;;;7.93;3.90;;;17.40;77.90;;;;;;5076857;28;20171;-24
2022/01/18 12:23:51;;;;;;;8.87;3.97;;;17.40;78.20;;;;;;5076941;28;20149;-23
2022/01/18 12:26:46;;;;;;;7.80;3.90;;;17.30;78.30;;;;;;5094267;28;20217;-22
2022/01/18 12:34:51;;;;;;;10.13;4.03;;;17.30;78.80;;;;;;5093475;28;20163;-23
2022/01/18 12:37:19;;;;;;;8.27;3.67;;;17.30;79.00;;;;;;5076700;28;20167;-23
2022/01/18 12:39:51;;;;;;;4.87;3.67;;;17.30;79.00;;;;;;5076171;28;20240;-22
2022/01/18 12:45:19;;;;;;;10.17;4.17;;;17.30;79.50;;;;;;5092030;28;20179;-24
2022/01/18 12:47:56;;;;;;;7.77;3.80;;;17.20;79.70;;;;;;5073816;28;20167;-23
2022/01/18 12:50:27;;;;;;;7.03;3.90;;;17.20;79.70;;;;;;5074278;28;20185;-24
2022/01/18 12:52:59;;;;;;;6.23;3.77;;;17.20;79.70;;;;;;5073959;28;20225;-22
2022/01/18 12:55:30;;;;;;;7.83;4.33;;;17.20;79.60;;;;;;5056156;28;20281;-23
2022/01/18 12:58:00;;;;;;;6.90;3.70;;;17.20;79.90;;;;;;5056414;28;20177;-24
2022/01/18 13:00:26;;;;;;;11.13;4.30;;;17.20;79.70;;;;;;5073538;28;20172;-22
2022/01/18 13:02:52;;;;;;;7.90;4.20;;;17.20;79.80;;;;;;5073264;28;20514;-23
2022/01/18 13:05:17;;;;;;;10.73;3.80;;;17.20;80.10;;;;;;5074125;28;20188;-22
2022/01/18 13:07:54;;;;;;;7.50;3.83;;;17.20;80.10;;;;;;5073278;28;20201;-25
2022/01/18 13:10:52;;;;;;;7.83;4.20;;;17.30;79.50;;;;;;5074261;28;20176;-26
2022/01/18 13:13:22;;;;;;;8.37;3.40;;;17.50;78.30;;;;;;5073961;28;20264;-24
2022/01/18 13:26:53;;;;;;;8.67;3.60;;;18.70;67.10;;;;;;5073439;28;20869;-24
2022/01/18 13:29:22;;;;;;;9.57;3.60;;;18.80;65.90;;;;;;5055117;28;20725;-24
2022/01/18 13:32:15;;;;;;;7.27;3.70;;;18.80;65.80;;;;;;5055051;28;20171;-24
2022/01/18 13:34:43;;;;;;;6.97;3.40;;;18.70;66.20;;;;;;5074350;28;20163;-23
2022/01/18 13:37:14;;;;;;;7.80;3.57;;;18.50;67.30;;;;;;5073508;28;20179;-22
2022/01/18 13:39:47;;;;;;;7.47;3.43;;;18.40;71.10;;;;;;5056197;28;20178;-22
2022/01/18 13:42:15;;;;;;;10.43;3.90;;;18.10;76.00;;;;;;5058884;28;20172;-22
2022/01/18 13:45:19;;;;;;;12.37;3.93;;;17.90;76.90;;;;;;5077578;28;20650;-24
2022/01/18 13:47:49;;;;;;;9.20;3.87;;;17.80;77.80;;;;;;5077282;28;20168;-23
2022/01/18 13:50:34;;;;;;;9.17;3.57;;;17.70;78.70;;;;;;5059707;28;20181;-23
2022/01/18 13:53:20;;;;;;;6.63;3.73;;;17.60;79.50;;;;;;5076995;28;20192;-25
2022/01/18 13:55:55;;;;;;;8.50;3.70;;;17.50;79.90;;;;;;5059248;28;20178;-27
2022/01/18 13:58:30;;;;;;;7.20;3.50;;;17.50;80.40;;;;;;5077298;28;20238;-22
2022/01/18 14:01:09;;;;;;;11.00;4.10;;;17.40;81.30;;;;;;5076531;28;20735;-24
2022/01/18 14:03:38;;;;;;;11.30;3.93;;;17.40;82.50;;;;;;5059139;28;20185;-22
2022/01/18 14:06:06;;;;;;;8.30;3.67;;;17.40;83.20;;;;;;5076770;28;20202;-22
2022/01/18 14:08:41;;;;;;;8.30;3.47;;;17.30;83.50;;;;;;5077427;28;20163;-24
2022/01/18 14:11:10;;;;;;;8.33;4.07;;;17.30;83.70;;;;;;5076866;28;20164;-21
2022/01/18 14:13:37;;;;;;;8.90;3.30;;;17.30;84.20;;;;;;5076876;28;20169;-25
2022/01/18 14:16:25;;;;;;;7.33;3.53;;;17.30;89.20;;;;;;5077343;28;20200;-25
2022/01/18 14:19:07;;;;;;;13.93;3.90;;;17.30;88.20;;;;;;5059929;28;20224;-22
2022/01/18 14:21:50;;;;;;;16.90;4.17;;;17.30;88.10;;;;;;5076878;28;20155;-22
2022/01/18 14:24:18;;;;;;;12.17;3.77;;;17.30;88.50;;;;;;5077060;28;20184;-23
2022/01/18 14:27:02;;;;;;;10.57;3.50;;;17.20;88.00;;;;;;5077062;28;20188;-22
2022/01/18 14:29:42;;;;;;;7.80;3.20;;;17.30;87.80;;;;;;5077294;28;20182;-23
2022/01/18 14:32:30;;;;;;;9.77;3.83;;;17.20;87.30;;;;;;5076946;28;20569;-22
2022/01/18 14:35:02;;;;;;;11.13;4.37;;;17.20;87.10;;;;;;5059453;28;20169;-21
2022/01/18 14:37:39;;;;;;;11.13;3.87;;;17.10;87.40;;;;;;5058928;28;20173;-23